sensor_id;sensor_type;location;lat;lon;timestamp;P1;durP1;ratioP1;P2;durP2;ratioP2
19842;SDS011;10082;51.038;6.992;2022-11-20T00:01:06;12.90;;;11.50;;
19842;SDS011;10082;51.038;6.992;2022-11-20T00:03:33;13.50;;;12.20;;
19842;SDS011;10082;51.038;6.992;2022-11-20T00:06:00;12.70;;;11.40;;
19842;SDS011;10082;51.038;6.992;2022-11-20T00:08:29;13.37;;;12.03;;
19842;SDS011;10082;51.038;6.992;2022-11-20T00:10:56;13.43;;;11.97;;
19842;SDS011;10082;51.038;6.992;2022-11-20T00:13:24;12.43;;;11.13;;
19842;SDS011;10082;51.038;6.992;2022-11-20T00:15:56;12.50;;;11.20;;
19842;SDS011;10082;51.038;6.992;2022-11-20T00:18:24;13.30;;;11.90;;
19842;SDS011;10082;51.038;6.992;2022-11-20T00:20:51;12.23;;;11.00;;
19842;SDS011;10082;51.038;6.992;2022-11-20T00:23:19;12.27;;;11.03;;
19842;SDS011;10082;51.038;6.992;2022-11-20T00:25:48;12.20;;;10.97;;
19842;SDS011;10082;51.038;6.992;2022-11-20T00:28:15;12.47;;;11.17;;
19842;SDS011;10082;51.038;6.992;2022-11-20T00:30:42;12.93;;;11.33;;
19842;SDS011;10082;51.038;6.992;2022-11-20T00:33:09;12.40;;;11.20;;
19842;SDS011;10082;51.038;6.992;2022-11-20T00:35:36;11.80;;;10.70;;
19842;SDS011;10082;51.038;6.992;2022-11-20T00:38:03;11.17;;;10.03;;
19842;SDS011;10082;51.038;6.992;2022-11-20T00:40:30;11.47;;;10.37;;
19842;SDS011;10082;51.038;6.992;2022-11-20T00:42:59;11.53;;;10.33;;
19842;SDS011;10082;51.038;6.992;2022-11-20T00:45:25;12.03;;;10.77;;
19842;SDS011;10082;51.038;6.992;2022-11-20T00:47:53;13.13;;;11.73;;
19842;SDS011;10082;51.038;6.992;2022-11-20T00:50:20;12.40;;;11.13;;
19842;SDS011;10082;51.038;6.992;2022-11-20T00:52:47;10.93;;;9.87;;
19842;SDS011;10082;51.038;6.992;2022-11-20T00:55:14;12.77;;;11.43;;
19842;SDS011;10082;51.038;6.992;2022-11-20T00:57:41;12.47;;;11.27;;
19842;SDS011;10082;51.038;6.992;2022-11-20T01:00:10;11.80;;;10.60;;
19842;SDS011;10082;51.038;6.992;2022-11-20T01:02:37;11.20;;;10.17;;
19842;SDS011;10082;51.038;6.992;2022-11-20T01:05:05;12.03;;;10.83;;
19842;SDS011;10082;51.038;6.992;2022-11-20T01:07:32;12.00;;;10.80;;
19842;SDS011;10082;51.038;6.992;2022-11-20T01:09:59;11.83;;;10.73;;
19842;SDS011;10082;51.038;6.992;2022-11-20T01:12:26;12.03;;;10.83;;
19842;SDS011;10082;51.038;6.992;2022-11-20T01:14:53;11.93;;;10.73;;
19842;SDS011;10082;51.038;6.992;2022-11-20T01:17:22;11.73;;;10.53;;
19842;SDS011;10082;51.038;6.992;2022-11-20T01:19:49;11.40;;;10.30;;
19842;SDS011;10082;51.038;6.992;2022-11-20T01:22:17;11.20;;;10.10;;
19842;SDS011;10082;51.038;6.992;2022-11-20T01:24:44;11.83;;;10.60;;
19842;SDS011;10082;51.038;6.992;2022-11-20T01:27:11;11.27;;;10.17;;
19842;SDS011;10082;51.038;6.992;2022-11-20T01:29:38;12.00;;;10.80;;
19842;SDS011;10082;51.038;6.992;2022-11-20T01:32:05;11.80;;;10.67;;
19842;SDS011;10082;51.038;6.992;2022-11-20T01:34:34;11.70;;;10.57;;
19842;SDS011;10082;51.038;6.992;2022-11-20T01:37:01;11.30;;;10.20;;
19842;SDS011;10082;51.038;6.992;2022-11-20T01:39:28;12.13;;;10.90;;
19842;SDS011;10082;51.038;6.992;2022-11-20T01:41:55;12.43;;;11.23;;
19842;SDS011;10082;51.038;6.992;2022-11-20T01:44:45;11.50;;;10.40;;
19842;SDS011;10082;51.038;6.992;2022-11-20T01:47:16;11.77;;;10.57;;
19842;SDS011;10082;51.038;6.992;2022-11-20T01:49:50;11.77;;;10.57;;
19842;SDS011;10082;51.038;6.992;2022-11-20T01:52:21;12.50;;;11.30;;
19842;SDS011;10082;51.038;6.992;2022-11-20T01:54:51;11.73;;;10.57;;
19842;SDS011;10082;51.038;6.992;2022-11-20T01:57:21;11.93;;;10.73;;
19842;SDS011;10082;51.038;6.992;2022-11-20T01:59:52;11.63;;;10.43;;
19842;SDS011;10082;51.038;6.992;2022-11-20T02:02:23;11.20;;;10.13;;
19842;SDS011;10082;51.038;6.992;2022-11-20T02:04:52;11.87;;;10.43;;
19842;SDS011;10082;51.038;6.992;2022-11-20T02:07:23;11.53;;;10.40;;
19842;SDS011;10082;51.038;6.992;2022-11-20T02:09:50;11.70;;;10.50;;
19842;SDS011;10082;51.038;6.992;2022-11-20T02:12:17;11.53;;;10.33;;
19842;SDS011;10082;51.038;6.992;2022-11-20T02:14:58;12.07;;;10.87;;
19842;SDS011;10082;51.038;6.992;2022-11-20T02:17:26;11.37;;;10.27;;
19842;SDS011;10082;51.038;6.992;2022-11-20T02:19:54;12.70;;;11.40;;
19842;SDS011;10082;51.038;6.992;2022-11-20T02:22:23;11.97;;;10.77;;
19842;SDS011;10082;51.038;6.992;2022-11-20T02:24:55;11.80;;;10.60;;
19842;SDS011;10082;51.038;6.992;2022-11-20T02:27:25;12.77;;;11.47;;
19842;SDS011;10082;51.038;6.992;2022-11-20T02:29:53;12.23;;;10.93;;
19842;SDS011;10082;51.038;6.992;2022-11-20T02:32:25;11.67;;;10.47;;
19842;SDS011;10082;51.038;6.992;2022-11-20T02:34:54;12.53;;;11.23;;
19842;SDS011;10082;51.038;6.992;2022-11-20T02:37:22;11.53;;;10.43;;
19842;SDS011;10082;51.038;6.992;2022-11-20T02:39:53;11.70;;;10.30;;
19842;SDS011;10082;51.038;6.992;2022-11-20T02:42:22;11.23;;;10.13;;
19842;SDS011;10082;51.038;6.992;2022-11-20T02:44:49;11.77;;;10.57;;
19842;SDS011;10082;51.038;6.992;2022-11-20T02:47:16;11.30;;;10.20;;
19842;SDS011;10082;51.038;6.992;2022-11-20T02:49:43;11.63;;;10.53;;
19842;SDS011;10082;51.038;6.992;2022-11-20T02:52:10;11.27;;;10.17;;
19842;SDS011;10082;51.038;6.992;2022-11-20T02:54:37;12.43;;;10.93;;
19842;SDS011;10082;51.038;6.992;2022-11-20T02:57:04;11.37;;;10.27;;
19842;SDS011;10082;51.038;6.992;2022-11-20T02:59:33;11.80;;;10.60;;
19842;SDS011;10082;51.038;6.992;2022-11-20T03:02:00;11.93;;;10.73;;
19842;SDS011;10082;51.038;6.992;2022-11-20T03:04:28;11.53;;;10.33;;
19842;SDS011;10082;51.038;6.992;2022-11-20T03:06:54;11.20;;;10.10;;
19842;SDS011;10082;51.038;6.992;2022-11-20T03:09:22;11.63;;;10.43;;
19842;SDS011;10082;51.038;6.992;2022-11-20T03:11:49;11.17;;;10.07;;
19842;SDS011;10082;51.038;6.992;2022-11-20T03:14:16;12.37;;;11.07;;
19842;SDS011;10082;51.038;6.992;2022-11-20T03:16:44;11.93;;;9.87;;
19842;SDS011;10082;51.038;6.992;2022-11-20T03:19:11;10.83;;;9.43;;
19842;SDS011;10082;51.038;6.992;2022-11-20T03:21:39;10.83;;;9.73;;
19842;SDS011;10082;51.038;6.992;2022-11-20T03:24:06;11.40;;;10.27;;
19842;SDS011;10082;51.038;6.992;2022-11-20T03:26:33;10.87;;;9.77;;
19842;SDS011;10082;51.038;6.992;2022-11-20T03:29:01;11.17;;;9.70;;
19842;SDS011;10082;51.038;6.992;2022-11-20T03:31:31;11.27;;;10.17;;
19842;SDS011;10082;51.038;6.992;2022-11-20T03:34:02;11.30;;;10.20;;
19842;SDS011;10082;51.038;6.992;2022-11-20T03:36:30;11.47;;;10.27;;
19842;SDS011;10082;51.038;6.992;2022-11-20T03:38:57;11.73;;;10.53;;
19842;SDS011;10082;51.038;6.992;2022-11-20T03:41:25;12.03;;;10.83;;
19842;SDS011;10082;51.038;6.992;2022-11-20T03:43:54;11.70;;;10.50;;
19842;SDS011;10082;51.038;6.992;2022-11-20T03:46:22;11.63;;;10.43;;
19842;SDS011;10082;51.038;6.992;2022-11-20T03:48:50;11.10;;;9.90;;
19842;SDS011;10082;51.038;6.992;2022-11-20T03:51:20;12.03;;;10.83;;
19842;SDS011;10082;51.038;6.992;2022-11-20T03:53:48;12.07;;;10.83;;
19842;SDS011;10082;51.038;6.992;2022-11-20T03:56:18;12.13;;;10.93;;
19842;SDS011;10082;51.038;6.992;2022-11-20T03:58:46;11.30;;;10.20;;
19842;SDS011;10082;51.038;6.992;2022-11-20T04:01:14;12.20;;;10.90;;
19842;SDS011;10082;51.038;6.992;2022-11-20T04:03:43;12.00;;;10.80;;
19842;SDS011;10082;51.038;6.992;2022-11-20T04:06:12;11.83;;;10.63;;
19842;SDS011;10082;51.038;6.992;2022-11-20T04:08:43;12.57;;;11.20;;
19842;SDS011;10082;51.038;6.992;2022-11-20T04:11:11;12.77;;;11.33;;
19842;SDS011;10082;51.038;6.992;2022-11-20T04:13:39;13.40;;;11.93;;
19842;SDS011;10082;51.038;6.992;2022-11-20T04:16:06;12.20;;;10.90;;
19842;SDS011;10082;51.038;6.992;2022-11-20T04:18:34;12.10;;;10.90;;
19842;SDS011;10082;51.038;6.992;2022-11-20T04:21:03;11.53;;;10.43;;
19842;SDS011;10082;51.038;6.992;2022-11-20T04:23:31;12.53;;;11.13;;
19842;SDS011;10082;51.038;6.992;2022-11-20T04:26:04;11.30;;;10.20;;
19842;SDS011;10082;51.038;6.992;2022-11-20T04:28:33;12.57;;;11.27;;
19842;SDS011;10082;51.038;6.992;2022-11-20T04:31:03;11.43;;;10.23;;
19842;SDS011;10082;51.038;6.992;2022-11-20T04:33:31;12.80;;;10.90;;
19842;SDS011;10082;51.038;6.992;2022-11-20T04:36:02;11.80;;;10.60;;
19842;SDS011;10082;51.038;6.992;2022-11-20T04:38:30;12.70;;;11.40;;
19842;SDS011;10082;51.038;6.992;2022-11-20T04:40:57;12.67;;;11.37;;
19842;SDS011;10082;51.038;6.992;2022-11-20T04:43:27;12.20;;;10.80;;
19842;SDS011;10082;51.038;6.992;2022-11-20T04:45:54;12.07;;;10.83;;
19842;SDS011;10082;51.038;6.992;2022-11-20T04:48:29;12.80;;;11.50;;
19842;SDS011;10082;51.038;6.992;2022-11-20T04:50:56;13.33;;;11.93;;
19842;SDS011;10082;51.038;6.992;2022-11-20T04:53:24;12.53;;;11.33;;
19842;SDS011;10082;51.038;6.992;2022-11-20T04:55:51;13.67;;;12.13;;
19842;SDS011;10082;51.038;6.992;2022-11-20T04:58:26;12.27;;;11.00;;
19842;SDS011;10082;51.038;6.992;2022-11-20T05:00:53;12.73;;;11.43;;
19842;SDS011;10082;51.038;6.992;2022-11-20T05:03:27;12.27;;;11.03;;
19842;SDS011;10082;51.038;6.992;2022-11-20T05:05:54;12.70;;;11.40;;
19842;SDS011;10082;51.038;6.992;2022-11-20T05:08:21;12.93;;;11.53;;
19842;SDS011;10082;51.038;6.992;2022-11-20T05:10:48;13.40;;;12.00;;
19842;SDS011;10082;51.038;6.992;2022-11-20T05:13:15;13.17;;;11.77;;
19842;SDS011;10082;51.038;6.992;2022-11-20T05:15:44;13.37;;;12.00;;
19842;SDS011;10082;51.038;6.992;2022-11-20T05:18:11;12.67;;;11.47;;
19842;SDS011;10082;51.038;6.992;2022-11-20T05:20:38;13.43;;;12.03;;
19842;SDS011;10082;51.038;6.992;2022-11-20T05:23:05;12.00;;;10.80;;
19842;SDS011;10082;51.038;6.992;2022-11-20T05:25:32;13.00;;;11.60;;
19842;SDS011;10082;51.038;6.992;2022-11-20T05:27:59;12.50;;;11.20;;
19842;SDS011;10082;51.038;6.992;2022-11-20T05:30:26;12.60;;;11.30;;
19842;SDS011;10082;51.038;6.992;2022-11-20T05:32:54;11.93;;;10.73;;
19842;SDS011;10082;51.038;6.992;2022-11-20T05:35:21;11.90;;;10.77;;
19842;SDS011;10082;51.038;6.992;2022-11-20T05:37:48;12.53;;;11.33;;
19842;SDS011;10082;51.038;6.992;2022-11-20T05:40:15;12.53;;;11.30;;
19842;SDS011;10082;51.038;6.992;2022-11-20T05:42:42;12.10;;;10.90;;
19842;SDS011;10082;51.038;6.992;2022-11-20T05:45:09;12.43;;;11.17;;
19842;SDS011;10082;51.038;6.992;2022-11-20T05:47:36;12.13;;;10.93;;
19842;SDS011;10082;51.038;6.992;2022-11-20T05:50:05;12.33;;;11.03;;
19842;SDS011;10082;51.038;6.992;2022-11-20T05:52:32;12.33;;;11.13;;
19842;SDS011;10082;51.038;6.992;2022-11-20T05:55:00;12.03;;;10.73;;
19842;SDS011;10082;51.038;6.992;2022-11-20T05:57:26;14.40;;;11.90;;
19842;SDS011;10082;51.038;6.992;2022-11-20T05:59:54;13.27;;;11.83;;
19842;SDS011;10082;51.038;6.992;2022-11-20T06:02:21;12.87;;;11.57;;
19842;SDS011;10082;51.038;6.992;2022-11-20T06:04:48;12.57;;;11.27;;
19842;SDS011;10082;51.038;6.992;2022-11-20T06:07:17;12.23;;;11.03;;
19842;SDS011;10082;51.038;6.992;2022-11-20T06:09:44;13.50;;;12.10;;
19842;SDS011;10082;51.038;6.992;2022-11-20T06:12:11;12.27;;;11.07;;
19842;SDS011;10082;51.038;6.992;2022-11-20T06:14:38;13.37;;;11.33;;
19842;SDS011;10082;51.038;6.992;2022-11-20T06:17:05;14.20;;;12.50;;
19842;SDS011;10082;51.038;6.992;2022-11-20T06:19:32;13.30;;;11.93;;
19842;SDS011;10082;51.038;6.992;2022-11-20T06:21:59;12.87;;;11.60;;
19842;SDS011;10082;51.038;6.992;2022-11-20T06:24:27;13.07;;;11.70;;
19842;SDS011;10082;51.038;6.992;2022-11-20T06:26:54;13.37;;;11.97;;
19842;SDS011;10082;51.038;6.992;2022-11-20T06:29:21;14.30;;;12.90;;
19842;SDS011;10082;51.038;6.992;2022-11-20T06:31:48;13.10;;;11.77;;
19842;SDS011;10082;51.038;6.992;2022-11-20T06:34:15;13.80;;;12.40;;
19842;SDS011;10082;51.038;6.992;2022-11-20T06:36:43;14.50;;;12.43;;
19842;SDS011;10082;51.038;6.992;2022-11-20T06:39:10;14.70;;;13.13;;
19842;SDS011;10082;51.038;6.992;2022-11-20T06:41:39;15.07;;;13.13;;
19842;SDS011;10082;51.038;6.992;2022-11-20T06:44:06;14.77;;;13.03;;
19842;SDS011;10082;51.038;6.992;2022-11-20T06:46:33;15.03;;;13.43;;
19842;SDS011;10082;51.038;6.992;2022-11-20T06:49:00;14.30;;;12.60;;
19842;SDS011;10082;51.038;6.992;2022-11-20T06:51:27;14.37;;;12.67;;
19842;SDS011;10082;51.038;6.992;2022-11-20T06:53:54;14.57;;;12.30;;
19842;SDS011;10082;51.038;6.992;2022-11-20T06:56:21;15.07;;;13.20;;
19842;SDS011;10082;51.038;6.992;2022-11-20T06:58:50;14.20;;;12.20;;
19842;SDS011;10082;51.038;6.992;2022-11-20T07:01:17;14.30;;;12.80;;
19842;SDS011;10082;51.038;6.992;2022-11-20T07:03:43;16.13;;;13.60;;
19842;SDS011;10082;51.038;6.992;2022-11-20T07:06:10;15.13;;;13.53;;
19842;SDS011;10082;51.038;6.992;2022-11-20T07:08:38;14.90;;;13.30;;
19842;SDS011;10082;51.038;6.992;2022-11-20T07:11:05;15.83;;;13.33;;
19842;SDS011;10082;51.038;6.992;2022-11-20T07:13:33;15.50;;;13.90;;
19842;SDS011;10082;51.038;6.992;2022-11-20T07:16:03;14.67;;;13.07;;
19842;SDS011;10082;51.038;6.992;2022-11-20T07:18:31;13.70;;;12.30;;
19842;SDS011;10082;51.038;6.992;2022-11-20T07:20:59;14.93;;;12.70;;
19842;SDS011;10082;51.038;6.992;2022-11-20T07:23:27;14.57;;;13.03;;
19842;SDS011;10082;51.038;6.992;2022-11-20T07:25:54;15.03;;;13.17;;
19842;SDS011;10082;51.038;6.992;2022-11-20T07:28:21;15.20;;;12.47;;
19842;SDS011;10082;51.038;6.992;2022-11-20T07:30:51;15.87;;;13.23;;
19842;SDS011;10082;51.038;6.992;2022-11-20T07:33:21;16.23;;;13.43;;
19842;SDS011;10082;51.038;6.992;2022-11-20T07:35:48;17.10;;;13.57;;
19842;SDS011;10082;51.038;6.992;2022-11-20T07:38:14;15.60;;;13.40;;
19842;SDS011;10082;51.038;6.992;2022-11-20T07:40:42;17.43;;;14.37;;
19842;SDS011;10082;51.038;6.992;2022-11-20T07:43:09;15.20;;;13.57;;
19842;SDS011;10082;51.038;6.992;2022-11-20T07:45:36;14.33;;;12.67;;
19842;SDS011;10082;51.038;6.992;2022-11-20T07:48:03;16.57;;;14.57;;
19842;SDS011;10082;51.038;6.992;2022-11-20T07:50:32;14.43;;;12.73;;
19842;SDS011;10082;51.038;6.992;2022-11-20T07:53:03;17.47;;;14.53;;
19842;SDS011;10082;51.038;6.992;2022-11-20T07:55:31;14.90;;;13.30;;
19842;SDS011;10082;51.038;6.992;2022-11-20T07:57:58;16.63;;;13.90;;
19842;SDS011;10082;51.038;6.992;2022-11-20T08:00:26;15.17;;;13.63;;
19842;SDS011;10082;51.038;6.992;2022-11-20T08:02:53;15.03;;;13.43;;
19842;SDS011;10082;51.038;6.992;2022-11-20T08:05:20;15.77;;;14.07;;
19842;SDS011;10082;51.038;6.992;2022-11-20T08:07:49;14.67;;;13.17;;
19842;SDS011;10082;51.038;6.992;2022-11-20T08:10:16;15.20;;;13.50;;
19842;SDS011;10082;51.038;6.992;2022-11-20T08:12:44;15.23;;;12.90;;
19842;SDS011;10082;51.038;6.992;2022-11-20T08:15:29;14.13;;;12.67;;
19842;SDS011;10082;51.038;6.992;2022-11-20T08:18:00;14.80;;;13.27;;
19842;SDS011;10082;51.038;6.992;2022-11-20T08:20:28;15.30;;;13.47;;
19842;SDS011;10082;51.038;6.992;2022-11-20T08:23:00;14.40;;;12.90;;
19842;SDS011;10082;51.038;6.992;2022-11-20T08:25:28;14.43;;;12.93;;
19842;SDS011;10082;51.038;6.992;2022-11-20T08:27:56;14.97;;;13.33;;
19842;SDS011;10082;51.038;6.992;2022-11-20T08:30:24;14.67;;;13.07;;
19842;SDS011;10082;51.038;6.992;2022-11-20T08:32:52;14.70;;;13.20;;
19842;SDS011;10082;51.038;6.992;2022-11-20T08:35:20;16.23;;;14.53;;
19842;SDS011;10082;51.038;6.992;2022-11-20T08:37:47;15.90;;;14.23;;
19842;SDS011;10082;51.038;6.992;2022-11-20T08:40:16;14.93;;;13.33;;
19842;SDS011;10082;51.038;6.992;2022-11-20T08:42:47;14.97;;;13.30;;
19842;SDS011;10082;51.038;6.992;2022-11-20T08:45:15;14.93;;;13.27;;
19842;SDS011;10082;51.038;6.992;2022-11-20T08:47:42;14.87;;;13.27;;
19842;SDS011;10082;51.038;6.992;2022-11-20T08:50:10;15.30;;;13.73;;
19842;SDS011;10082;51.038;6.992;2022-11-20T08:52:42;14.17;;;12.77;;
19842;SDS011;10082;51.038;6.992;2022-11-20T08:55:09;13.97;;;12.57;;
19842;SDS011;10082;51.038;6.992;2022-11-20T08:57:38;14.70;;;13.17;;
19842;SDS011;10082;51.038;6.992;2022-11-20T09:00:06;15.47;;;13.87;;
19842;SDS011;10082;51.038;6.992;2022-11-20T09:02:34;15.87;;;14.00;;
19842;SDS011;10082;51.038;6.992;2022-11-20T09:05:01;15.03;;;13.50;;
19842;SDS011;10082;51.038;6.992;2022-11-20T09:07:28;14.53;;;12.80;;
19842;SDS011;10082;51.038;6.992;2022-11-20T09:09:56;14.57;;;13.07;;
19842;SDS011;10082;51.038;6.992;2022-11-20T09:12:23;15.00;;;13.17;;
19842;SDS011;10082;51.038;6.992;2022-11-20T09:14:53;15.67;;;14.07;;
19842;SDS011;10082;51.038;6.992;2022-11-20T09:17:20;14.77;;;13.30;;
19842;SDS011;10082;51.038;6.992;2022-11-20T09:19:47;15.80;;;13.87;;
19842;SDS011;10082;51.038;6.992;2022-11-20T09:22:14;16.23;;;14.53;;
19842;SDS011;10082;51.038;6.992;2022-11-20T09:24:41;15.70;;;14.10;;
19842;SDS011;10082;51.038;6.992;2022-11-20T09:27:08;15.07;;;13.57;;
19842;SDS011;10082;51.038;6.992;2022-11-20T09:29:37;16.70;;;14.90;;
19842;SDS011;10082;51.038;6.992;2022-11-20T09:32:05;15.90;;;14.07;;
19842;SDS011;10082;51.038;6.992;2022-11-20T09:34:33;15.83;;;14.13;;
19842;SDS011;10082;51.038;6.992;2022-11-20T09:37:00;15.03;;;13.43;;
19842;SDS011;10082;51.038;6.992;2022-11-20T09:39:27;14.30;;;12.80;;
19842;SDS011;10082;51.038;6.992;2022-11-20T09:41:56;14.40;;;13.00;;
19842;SDS011;10082;51.038;6.992;2022-11-20T09:44:50;14.43;;;12.93;;
19842;SDS011;10082;51.038;6.992;2022-11-20T09:47:33;15.00;;;13.40;;
19842;SDS011;10082;51.038;6.992;2022-11-20T09:50:17;14.80;;;13.30;;
19842;SDS011;10082;51.038;6.992;2022-11-20T09:53:01;11.70;;;10.57;;
19842;SDS011;10082;51.038;6.992;2022-11-20T09:55:37;12.43;;;11.13;;
19842;SDS011;10082;51.038;6.992;2022-11-20T09:58:05;11.63;;;10.53;;
19842;SDS011;10082;51.038;6.992;2022-11-20T10:00:34;12.23;;;10.87;;
19842;SDS011;10082;51.038;6.992;2022-11-20T10:03:06;11.30;;;10.20;;
19842;SDS011;10082;51.038;6.992;2022-11-20T10:05:41;12.50;;;10.50;;
19842;SDS011;10082;51.038;6.992;2022-11-20T10:08:14;10.63;;;9.57;;
19842;SDS011;10082;51.038;6.992;2022-11-20T10:10:46;11.10;;;10.00;;
19842;SDS011;10082;51.038;6.992;2022-11-20T10:13:20;10.77;;;9.70;;
19842;SDS011;10082;51.038;6.992;2022-11-20T10:16:03;11.53;;;10.33;;
19842;SDS011;10082;51.038;6.992;2022-11-20T10:18:47;11.97;;;10.77;;
19842;SDS011;10082;51.038;6.992;2022-11-20T10:21:25;11.53;;;10.33;;
19842;SDS011;10082;51.038;6.992;2022-11-20T10:24:16;12.03;;;10.83;;
19842;SDS011;10082;51.038;6.992;2022-11-20T10:26:58;12.53;;;11.23;;
19842;SDS011;10082;51.038;6.992;2022-11-20T10:29:34;12.63;;;11.33;;
19842;SDS011;10082;51.038;6.992;2022-11-20T10:32:04;13.90;;;12.00;;
19842;SDS011;10082;51.038;6.992;2022-11-20T10:34:42;14.67;;;13.17;;
19842;SDS011;10082;51.038;6.992;2022-11-20T10:37:16;16.30;;;14.20;;
19842;SDS011;10082;51.038;6.992;2022-11-20T10:39:47;16.30;;;14.27;;
19842;SDS011;10082;51.038;6.992;2022-11-20T10:42:21;14.73;;;13.03;;
19842;SDS011;10082;51.038;6.992;2022-11-20T10:44:54;15.03;;;13.53;;
19842;SDS011;10082;51.038;6.992;2022-11-20T10:47:30;15.97;;;14.27;;
19842;SDS011;10082;51.038;6.992;2022-11-20T10:50:01;14.60;;;13.10;;
19842;SDS011;10082;51.038;6.992;2022-11-20T10:52:32;15.87;;;13.37;;
19842;SDS011;10082;51.038;6.992;2022-11-20T10:55:17;14.73;;;13.23;;
19842;SDS011;10082;51.038;6.992;2022-11-20T10:57:57;16.20;;;13.90;;
19842;SDS011;10082;51.038;6.992;2022-11-20T11:00:32;16.27;;;14.43;;
19842;SDS011;10082;51.038;6.992;2022-11-20T11:02:59;15.90;;;14.20;;
19842;SDS011;10082;51.038;6.992;2022-11-20T11:05:35;16.87;;;13.80;;
19842;SDS011;10082;51.038;6.992;2022-11-20T11:08:07;16.13;;;14.20;;
19842;SDS011;10082;51.038;6.992;2022-11-20T11:10:39;15.47;;;13.70;;
19842;SDS011;10082;51.038;6.992;2022-11-20T11:13:18;15.63;;;13.37;;
19842;SDS011;10082;51.038;6.992;2022-11-20T11:15:46;15.17;;;13.63;;
19842;SDS011;10082;51.038;6.992;2022-11-20T11:18:22;16.60;;;14.53;;
19842;SDS011;10082;51.038;6.992;2022-11-20T11:20:56;14.97;;;13.33;;
19842;SDS011;10082;51.038;6.992;2022-11-20T11:23:30;14.43;;;12.90;;
19842;SDS011;10082;51.038;6.992;2022-11-20T11:25:59;15.17;;;13.30;;
19842;SDS011;10082;51.038;6.992;2022-11-20T11:28:27;15.83;;;14.17;;
19842;SDS011;10082;51.038;6.992;2022-11-20T11:30:54;15.00;;;13.50;;
19842;SDS011;10082;51.038;6.992;2022-11-20T11:33:22;16.17;;;14.47;;
19842;SDS011;10082;51.038;6.992;2022-11-20T11:35:53;15.40;;;13.77;;
19842;SDS011;10082;51.038;6.992;2022-11-20T11:38:23;16.57;;;14.13;;
19842;SDS011;10082;51.038;6.992;2022-11-20T11:40:57;16.73;;;15.03;;
19842;SDS011;10082;51.038;6.992;2022-11-20T11:43:25;15.97;;;14.27;;
19842;SDS011;10082;51.038;6.992;2022-11-20T11:49:13;17.20;;;15.00;;
19842;SDS011;10082;51.038;6.992;2022-11-20T11:51:47;16.00;;;14.30;;
19842;SDS011;10082;51.038;6.992;2022-11-20T11:54:26;17.40;;;15.57;;
19842;SDS011;10082;51.038;6.992;2022-11-20T11:56:58;17.47;;;15.13;;
19842;SDS011;10082;51.038;6.992;2022-11-20T11:59:33;16.50;;;14.60;;
19842;SDS011;10082;51.038;6.992;2022-11-20T12:02:13;15.70;;;13.93;;
19842;SDS011;10082;51.038;6.992;2022-11-20T12:04:50;16.37;;;14.67;;
19842;SDS011;10082;51.038;6.992;2022-11-20T12:07:27;16.60;;;14.37;;
19842;SDS011;10082;51.038;6.992;2022-11-20T12:10:05;16.57;;;14.13;;
19842;SDS011;10082;51.038;6.992;2022-11-20T12:12:40;15.90;;;14.30;;
19842;SDS011;10082;51.038;6.992;2022-11-20T12:15:12;17.03;;;15.23;;
19842;SDS011;10082;51.038;6.992;2022-11-20T12:17:49;15.17;;;13.33;;
19842;SDS011;10082;51.038;6.992;2022-11-20T12:20:16;15.73;;;14.03;;
19842;SDS011;10082;51.038;6.992;2022-11-20T12:22:46;16.40;;;14.00;;
19842;SDS011;10082;51.038;6.992;2022-11-20T12:25:20;15.77;;;14.07;;
19842;SDS011;10082;51.038;6.992;2022-11-20T12:27:57;16.17;;;14.47;;
19842;SDS011;10082;51.038;6.992;2022-11-20T12:30:33;15.83;;;13.97;;
19842;SDS011;10082;51.038;6.992;2022-11-20T12:33:19;15.90;;;14.20;;
19842;SDS011;10082;51.038;6.992;2022-11-20T12:36:15;15.87;;;14.27;;
19842;SDS011;10082;51.038;6.992;2022-11-20T12:38:57;15.20;;;13.70;;
19842;SDS011;10082;51.038;6.992;2022-11-20T12:41:57;15.23;;;13.63;;
19842;SDS011;10082;51.038;6.992;2022-11-20T12:48:14;16.37;;;14.10;;
19842;SDS011;10082;51.038;6.992;2022-11-20T12:51:05;15.73;;;13.57;;
19842;SDS011;10082;51.038;6.992;2022-11-20T12:53:44;15.53;;;13.57;;
19842;SDS011;10082;51.038;6.992;2022-11-20T12:56:27;15.00;;;13.30;;
19842;SDS011;10082;51.038;6.992;2022-11-20T12:59:21;15.13;;;13.50;;
19842;SDS011;10082;51.038;6.992;2022-11-20T13:01:58;15.97;;;14.27;;
19842;SDS011;10082;51.038;6.992;2022-11-20T13:04:41;15.97;;;13.97;;
19842;SDS011;10082;51.038;6.992;2022-11-20T13:07:17;14.93;;;13.33;;
19842;SDS011;10082;51.038;6.992;2022-11-20T13:09:46;16.10;;;14.07;;
19842;SDS011;10082;51.038;6.992;2022-11-20T13:12:18;15.00;;;13.50;;
19842;SDS011;10082;51.038;6.992;2022-11-20T13:14:52;15.57;;;13.93;;
19842;SDS011;10082;51.038;6.992;2022-11-20T13:17:25;15.03;;;13.43;;
19842;SDS011;10082;51.038;6.992;2022-11-20T13:19:59;15.53;;;13.60;;
19842;SDS011;10082;51.038;6.992;2022-11-20T13:22:27;15.77;;;13.43;;
19842;SDS011;10082;51.038;6.992;2022-11-20T13:24:55;15.90;;;14.20;;
19842;SDS011;10082;51.038;6.992;2022-11-20T13:27:24;15.73;;;14.00;;
19842;SDS011;10082;51.038;6.992;2022-11-20T13:30:02;15.37;;;13.73;;
19842;SDS011;10082;51.038;6.992;2022-11-20T13:32:47;17.47;;;14.90;;
19842;SDS011;10082;51.038;6.992;2022-11-20T13:35:23;16.80;;;14.43;;
19842;SDS011;10082;51.038;6.992;2022-11-20T13:37:59;15.67;;;13.57;;
19842;SDS011;10082;51.038;6.992;2022-11-20T13:40:31;14.17;;;12.33;;
19842;SDS011;10082;51.038;6.992;2022-11-20T13:45:59;15.70;;;13.67;;
19842;SDS011;10082;51.038;6.992;2022-11-20T13:48:29;15.57;;;13.53;;
19842;SDS011;10082;51.038;6.992;2022-11-20T13:51:07;13.87;;;12.43;;
19842;SDS011;10082;51.038;6.992;2022-11-20T13:53:53;14.67;;;13.10;;
19842;SDS011;10082;51.038;6.992;2022-11-20T13:56:34;14.47;;;12.83;;
19842;SDS011;10082;51.038;6.992;2022-11-20T13:59:10;15.00;;;12.93;;
19842;SDS011;10082;51.038;6.992;2022-11-20T14:01:45;15.87;;;13.93;;
19842;SDS011;10082;51.038;6.992;2022-11-20T14:04:14;15.20;;;13.37;;
19842;SDS011;10082;51.038;6.992;2022-11-20T14:06:45;14.30;;;12.73;;
19842;SDS011;10082;51.038;6.992;2022-11-20T14:09:24;14.47;;;12.93;;
19842;SDS011;10082;51.038;6.992;2022-11-20T14:11:53;15.87;;;13.53;;
19842;SDS011;10082;51.038;6.992;2022-11-20T14:14:23;14.30;;;12.73;;
19842;SDS011;10082;51.038;6.992;2022-11-20T14:16:51;14.30;;;12.80;;
19842;SDS011;10082;51.038;6.992;2022-11-20T14:19:26;15.17;;;13.57;;
19842;SDS011;10082;51.038;6.992;2022-11-20T14:22:07;15.03;;;13.10;;
19842;SDS011;10082;51.038;6.992;2022-11-20T14:24:36;14.70;;;13.20;;
19842;SDS011;10082;51.038;6.992;2022-11-20T14:27:03;17.10;;;14.07;;
19842;SDS011;10082;51.038;6.992;2022-11-20T14:29:34;16.50;;;13.60;;
19842;SDS011;10082;51.038;6.992;2022-11-20T14:32:04;17.43;;;14.47;;
19842;SDS011;10082;51.038;6.992;2022-11-20T14:34:32;16.67;;;13.37;;
19842;SDS011;10082;51.038;6.992;2022-11-20T14:37:05;15.20;;;13.03;;
19842;SDS011;10082;51.038;6.992;2022-11-20T14:39:41;14.47;;;12.40;;
19842;SDS011;10082;51.038;6.992;2022-11-20T14:42:15;14.93;;;13.30;;
19842;SDS011;10082;51.038;6.992;2022-11-20T14:44:45;14.97;;;13.13;;
19842;SDS011;10082;51.038;6.992;2022-11-20T14:47:15;15.60;;;12.83;;
19842;SDS011;10082;51.038;6.992;2022-11-20T14:49:46;17.23;;;14.00;;